createdAt,value
2017-01-30T00:03:28.353Z,0
2017-01-30T00:04:10.082Z,0
2017-01-30T00:04:51.833Z,0
2017-01-30T00:05:33.646Z,0
2017-01-30T00:06:15.459Z,0
2017-01-30T00:06:57.184Z,0
2017-01-30T00:07:38.864Z,0
2017-01-30T00:08:20.267Z,0
2017-01-30T00:09:01.726Z,0
2017-01-30T00:09:43.326Z,0
2017-01-30T00:10:25.113Z,0
2017-01-30T00:12:40.326Z,0
2017-01-30T00:15:11.479Z,0
2017-01-30T00:15:53.228Z,0
2017-01-30T00:16:35.008Z,0
2017-01-30T00:17:16.439Z,0
2017-01-30T00:17:58.215Z,0
2017-01-30T00:18:39.937Z,0
2017-01-30T00:19:21.664Z,0
2017-01-30T00:20:03.376Z,0
2017-01-30T00:20:45.041Z,0
2017-01-30T00:23:15.983Z,0
2017-01-30T00:25:31.227Z,0
2017-01-30T00:26:12.967Z,0
2017-01-30T00:26:54.717Z,0
2017-01-30T00:27:36.403Z,0
2017-01-30T00:30:07.187Z,0
2017-01-30T00:30:48.835Z,0
2017-01-30T00:31:30.535Z,0
2017-01-30T00:32:12.322Z,0
2017-01-30T00:32:54.080Z,0
2017-01-30T00:33:35.771Z,0
2017-01-30T00:34:17.605Z,0
2017-01-30T00:34:59.342Z,0
2017-01-30T00:35:41.100Z,0
2017-01-30T00:36:22.783Z,0
2017-01-30T00:37:04.451Z,0
2017-01-30T00:39:04.494Z,0
2017-01-30T00:39:46.174Z,0
2017-01-30T00:42:01.641Z,0
2017-01-30T00:42:43.358Z,0
2017-01-30T00:43:25.078Z,0
2017-01-30T00:44:06.813Z,0
2017-01-30T00:44:48.569Z,0
2017-01-30T00:45:30.329Z,0
2017-01-30T00:48:06.642Z,0
2017-01-30T00:48:48.384Z,0
2017-01-30T00:49:30.107Z,0
2017-01-30T00:50:11.507Z,0
2017-01-30T00:50:52.672Z,0
2017-01-30T00:51:34.148Z,0
2017-01-30T00:52:15.625Z,0
2017-01-30T00:54:15.739Z,0
2017-01-30T00:54:57.460Z,0
2017-01-30T00:55:39.172Z,0
2017-01-30T00:56:20.779Z,0
2017-01-30T00:57:02.449Z,0
2017-01-30T00:57:44.103Z,0
2017-01-30T00:58:25.873Z,0
2017-01-30T00:59:07.553Z,0
2017-01-30T00:59:49.347Z,0
2017-01-30T01:00:31.052Z,0
2017-01-30T01:01:12.820Z,0
2017-01-30T01:01:54.140Z,0
2017-01-30T01:06:20.001Z,0
2017-01-30T01:07:01.461Z,0
2017-01-30T01:07:42.818Z,0
2017-01-30T01:08:24.489Z,0
2017-01-30T01:09:06.175Z,0
2017-01-30T01:09:47.657Z,0
2017-01-30T01:14:13.423Z,0
2017-01-30T01:16:28.789Z,0
2017-01-30T01:18:59.879Z,0
2017-01-30T01:19:41.618Z,0
2017-01-30T01:20:23.360Z,0
2017-01-30T01:21:04.971Z,0
2017-01-30T01:21:46.695Z,0
2017-01-30T01:22:28.484Z,0
2017-01-30T01:24:28.554Z,0
2017-01-30T01:25:10.199Z,0
2017-01-30T01:25:51.930Z,0
2017-01-30T01:26:33.624Z,0
2017-01-30T01:29:10.007Z,0
2017-01-30T01:29:51.806Z,0
2017-01-30T01:30:33.464Z,0
2017-01-30T01:31:15.102Z,0
2017-01-30T01:31:56.853Z,0
2017-01-30T01:32:38.566Z,0
2017-01-30T01:33:20.298Z,0
2017-01-30T01:34:02.038Z,0
2017-01-30T01:34:43.732Z,0
2017-01-30T01:35:25.331Z,0
2017-01-30T01:36:06.957Z,0
2017-01-30T01:36:48.625Z,0
2017-01-30T01:39:03.779Z,0
2017-01-30T01:39:45.431Z,0
2017-01-30T01:42:16.068Z,0
2017-01-30T01:46:36.473Z,0
2017-01-30T01:47:18.239Z,0
2017-01-30T01:48:00.008Z,0
2017-01-30T01:48:41.704Z,0
2017-01-30T01:49:23.406Z,0
2017-01-30T01:50:05.098Z,0
2017-01-30T01:50:46.743Z,0
2017-01-30T01:51:28.391Z,0
2017-01-30T01:52:10.066Z,0
2017-01-30T01:52:51.844Z,0
2017-01-30T01:53:33.490Z,0
2017-01-30T01:54:15.104Z,0
2017-01-30T01:54:56.690Z,0
2017-01-30T01:55:38.325Z,0
2017-01-30T01:56:19.825Z,0
2017-01-30T01:57:01.512Z,0
2017-01-30T01:57:43.279Z,0
2017-01-30T01:58:25.025Z,0
2017-01-30T01:59:06.759Z,0
2017-01-30T01:59:48.168Z,0
2017-01-30T02:00:29.884Z,0
2017-01-30T02:01:11.405Z,0
2017-01-30T02:01:52.162Z,0
2017-01-30T02:02:32.684Z,0
2017-01-30T02:03:13.217Z,0
2017-01-30T02:03:53.713Z,0
2017-01-30T02:04:34.240Z,0
2017-01-30T02:05:14.774Z,0
2017-01-30T02:05:55.297Z,0
2017-01-30T02:06:35.831Z,0
2017-01-30T02:07:16.350Z,0
2017-01-30T02:07:56.884Z,0
2017-01-30T02:08:37.413Z,0
2017-01-30T02:09:17.939Z,0
2017-01-30T02:09:58.467Z,0
2017-01-30T02:10:38.993Z,0
2017-01-30T02:11:19.520Z,0
2017-01-30T02:12:00.042Z,0
2017-01-30T02:12:40.571Z,0
2017-01-30T02:13:21.124Z,0
2017-01-30T02:14:01.626Z,0
2017-01-30T02:14:42.154Z,0
2017-01-30T02:15:22.683Z,0
2017-01-30T02:16:03.222Z,0
2017-01-30T02:16:43.733Z,0
2017-01-30T02:17:24.260Z,0
2017-01-30T02:18:04.788Z,0
2017-01-30T02:18:45.309Z,0
2017-01-30T02:19:25.840Z,0
2017-01-30T02:20:06.372Z,0
2017-01-30T02:20:46.883Z,0
2017-01-30T02:21:27.428Z,0
2017-01-30T02:22:07.948Z,0
2017-01-30T02:22:48.474Z,0
2017-01-30T02:23:28.996Z,0
2017-01-30T02:24:09.527Z,0
2017-01-30T02:24:50.057Z,0
2017-01-30T02:25:30.593Z,0
2017-01-30T02:26:11.122Z,0
2017-01-30T02:26:51.640Z,0
2017-01-30T02:27:32.178Z,0
2017-01-30T02:28:12.705Z,0
2017-01-30T02:28:53.228Z,0
2017-01-30T02:29:33.777Z,0
2017-01-30T02:30:14.287Z,0
2017-01-30T02:30:54.816Z,0
2017-01-30T02:31:35.348Z,0
2017-01-30T02:32:15.894Z,0
2017-01-30T02:32:56.412Z,0
2017-01-30T02:33:36.936Z,0
2017-01-30T02:34:17.455Z,0
2017-01-30T02:34:57.961Z,0
2017-01-30T02:35:38.490Z,0
2017-01-30T02:36:19.017Z,0
2017-01-30T02:36:59.551Z,0
2017-01-30T02:37:40.073Z,0
2017-01-30T02:38:20.591Z,0
2017-01-30T02:39:01.095Z,0
2017-01-30T02:39:41.683Z,0
2017-01-30T02:40:22.200Z,0
2017-01-30T02:41:02.734Z,0
2017-01-30T02:41:43.300Z,0
2017-01-30T02:42:23.818Z,0
2017-01-30T02:43:04.345Z,0
2017-01-30T02:43:44.903Z,0
2017-01-30T02:44:25.416Z,0
2017-01-30T02:45:05.944Z,0
2017-01-30T02:45:46.481Z,0
2017-01-30T02:46:26.991Z,0
2017-01-30T02:47:07.519Z,0
2017-01-30T02:47:48.051Z,0
2017-01-30T02:48:28.582Z,0
2017-01-30T02:49:09.094Z,0
2017-01-30T02:49:49.618Z,0
2017-01-30T02:50:30.145Z,0
2017-01-30T02:51:10.659Z,0
2017-01-30T02:51:51.201Z,0
2017-01-30T02:52:31.723Z,0
2017-01-30T02:53:12.252Z,0
2017-01-30T02:53:52.771Z,0
2017-01-30T02:54:33.306Z,0
2017-01-30T02:55:13.838Z,0
2017-01-30T02:55:54.356Z,0
2017-01-30T02:56:34.877Z,0
2017-01-30T02:57:15.394Z,0
2017-01-30T02:57:55.942Z,0
2017-01-30T02:58:36.482Z,0
2017-01-30T02:59:17.012Z,0
2017-01-30T02:59:57.558Z,0
2017-01-30T03:00:38.089Z,0
2017-01-30T03:01:18.621Z,0
2017-01-30T03:01:59.143Z,0
2017-01-30T03:02:39.678Z,0
2017-01-30T03:03:20.209Z,0
2017-01-30T03:04:00.746Z,0
2017-01-30T03:04:41.267Z,0
2017-01-30T03:05:21.816Z,0
2017-01-30T03:06:02.324Z,0
2017-01-30T03:06:42.851Z,0
2017-01-30T03:07:23.376Z,0
2017-01-30T03:08:03.905Z,0
2017-01-30T03:08:44.446Z,0
2017-01-30T03:09:24.956Z,0
2017-01-30T03:10:05.497Z,0
2017-01-30T03:10:46.028Z,0
2017-01-30T03:11:26.563Z,0
2017-01-30T03:12:07.082Z,0
2017-01-30T03:12:47.616Z,0
2017-01-30T03:13:28.153Z,0
2017-01-30T03:14:08.656Z,0
2017-01-30T03:14:49.198Z,0
2017-01-30T03:15:29.727Z,0
2017-01-30T03:16:10.268Z,0
2017-01-30T03:16:50.780Z,0
2017-01-30T03:17:31.304Z,0
2017-01-30T03:18:11.818Z,0
2017-01-30T03:18:52.345Z,0
2017-01-30T03:19:32.872Z,0
2017-01-30T03:20:13.401Z,0
2017-01-30T03:20:53.918Z,0
2017-01-30T03:21:34.433Z,0
2017-01-30T03:22:14.947Z,0
2017-01-30T03:22:55.467Z,0
2017-01-30T03:23:36.006Z,0
2017-01-30T03:24:16.531Z,0
2017-01-30T03:24:57.050Z,0
2017-01-30T03:25:37.569Z,0
2017-01-30T03:26:18.073Z,0
2017-01-30T03:26:58.591Z,0
2017-01-30T03:27:39.121Z,0
2017-01-30T03:28:19.633Z,0
2017-01-30T03:29:00.160Z,0
2017-01-30T03:29:40.679Z,0
2017-01-30T03:30:21.213Z,0
2017-01-30T03:31:01.740Z,0
2017-01-30T03:31:42.254Z,0
2017-01-30T03:32:22.778Z,0
2017-01-30T03:33:03.307Z,0
2017-01-30T03:33:43.835Z,0
2017-01-30T03:34:24.333Z,0
2017-01-30T03:35:04.852Z,0
2017-01-30T03:35:45.393Z,0
2017-01-30T03:36:25.910Z,0
2017-01-30T03:37:06.445Z,0
2017-01-30T03:37:46.973Z,0
2017-01-30T03:38:27.524Z,0
2017-01-30T03:39:08.021Z,0
2017-01-30T03:39:48.558Z,0
2017-01-30T03:40:29.092Z,0
2017-01-30T03:41:09.625Z,0
2017-01-30T03:41:50.145Z,0
2017-01-30T03:42:30.670Z,0
2017-01-30T03:43:11.209Z,0
2017-01-30T03:43:51.736Z,0
2017-01-30T03:44:32.264Z,0
2017-01-30T03:45:12.792Z,0
2017-01-30T03:45:53.297Z,0
2017-01-30T03:46:33.823Z,0
2017-01-30T03:47:14.328Z,0
2017-01-30T03:47:54.874Z,0
2017-01-30T03:48:35.412Z,0
2017-01-30T03:49:15.929Z,0
2017-01-30T03:49:56.455Z,0
2017-01-30T03:50:36.984Z,0
2017-01-30T03:51:17.503Z,0
2017-01-30T03:51:58.032Z,0
2017-01-30T03:52:38.534Z,0
2017-01-30T03:53:19.052Z,0
2017-01-30T03:53:59.585Z,0
2017-01-30T03:54:40.117Z,0
2017-01-30T03:55:20.641Z,0
2017-01-30T03:56:01.163Z,0
2017-01-30T03:56:41.691Z,0
2017-01-30T03:57:22.229Z,0
2017-01-30T03:58:02.744Z,0
2017-01-30T03:58:43.258Z,0
2017-01-30T03:59:23.805Z,0
2017-01-30T04:00:04.331Z,0
2017-01-30T04:00:44.869Z,0
2017-01-30T04:01:25.393Z,0
2017-01-30T04:02:05.911Z,0
2017-01-30T04:02:46.444Z,0
2017-01-30T04:03:26.985Z,0
2017-01-30T04:04:07.515Z,0
2017-01-30T04:04:48.031Z,0
2017-01-30T04:05:28.567Z,0
2017-01-30T04:06:09.088Z,0
2017-01-30T04:06:49.614Z,0
2017-01-30T04:07:30.143Z,0
2017-01-30T04:08:10.656Z,0
2017-01-30T04:08:51.184Z,0
2017-01-30T04:09:31.725Z,0
2017-01-30T04:10:12.270Z,0
2017-01-30T04:10:52.792Z,0
2017-01-30T04:11:33.312Z,0
2017-01-30T04:12:13.837Z,0
2017-01-30T04:12:54.369Z,0
2017-01-30T04:13:34.885Z,0
2017-01-30T04:14:15.421Z,0
2017-01-30T04:14:55.946Z,0
2017-01-30T04:15:36.477Z,0
2017-01-30T04:16:16.987Z,0
2017-01-30T04:16:57.509Z,0
2017-01-30T04:17:38.035Z,0
2017-01-30T04:18:18.569Z,0
2017-01-30T04:18:59.082Z,0
2017-01-30T04:19:39.604Z,0
2017-01-30T04:20:20.140Z,0
2017-01-30T04:21:00.646Z,0
2017-01-30T04:21:41.172Z,0
2017-01-30T04:22:21.692Z,0
2017-01-30T04:23:02.236Z,0
2017-01-30T04:23:42.743Z,0
2017-01-30T04:24:23.270Z,0
2017-01-30T04:25:03.799Z,0
2017-01-30T04:25:44.328Z,0
2017-01-30T04:26:24.846Z,0
2017-01-30T04:27:05.363Z,0
2017-01-30T04:27:45.884Z,0
2017-01-30T04:28:26.390Z,0
2017-01-30T04:29:06.919Z,0
2017-01-30T04:29:47.423Z,0
2017-01-30T04:30:27.926Z,0
2017-01-30T04:31:08.469Z,0
2017-01-30T04:31:49.003Z,0
2017-01-30T04:32:29.514Z,0
2017-01-30T04:33:10.036Z,0
2017-01-30T04:33:50.548Z,0
2017-01-30T04:34:31.077Z,0
2017-01-30T04:35:11.585Z,0
2017-01-30T04:35:52.122Z,0
2017-01-30T04:36:32.646Z,0
2017-01-30T04:37:13.179Z,0
2017-01-30T04:37:53.710Z,0
2017-01-30T04:38:34.250Z,0
2017-01-30T04:39:14.767Z,0
2017-01-30T04:39:55.286Z,0
2017-01-30T04:40:35.808Z,0
2017-01-30T04:41:16.338Z,0
2017-01-30T04:41:56.857Z,0
2017-01-30T04:42:37.422Z,0
2017-01-30T04:43:17.903Z,0
2017-01-30T04:43:58.434Z,0
2017-01-30T04:44:38.949Z,0
2017-01-30T04:45:19.466Z,0
2017-01-30T04:45:59.972Z,0
2017-01-30T04:46:40.497Z,0
2017-01-30T04:47:21.032Z,0
2017-01-30T04:48:01.538Z,0
2017-01-30T04:48:42.052Z,0
2017-01-30T04:49:22.587Z,0
2017-01-30T04:50:03.111Z,0
2017-01-30T04:50:43.631Z,0
2017-01-30T04:51:24.149Z,0
2017-01-30T04:52:04.668Z,0
2017-01-30T04:52:45.190Z,0
2017-01-30T04:53:25.723Z,0
2017-01-30T04:54:06.254Z,0
2017-01-30T04:54:46.771Z,0
2017-01-30T04:55:27.291Z,0
2017-01-30T04:56:07.815Z,0
2017-01-30T04:56:48.340Z,0
2017-01-30T04:57:28.840Z,0
2017-01-30T04:58:09.361Z,0
2017-01-30T04:58:49.879Z,0
2017-01-30T04:59:30.410Z,0
2017-01-30T05:00:10.991Z,0
2017-01-30T05:00:51.496Z,0
2017-01-30T05:01:32.044Z,0
2017-01-30T05:02:12.560Z,0
2017-01-30T05:02:53.081Z,0
2017-01-30T05:03:33.611Z,0
2017-01-30T05:04:14.139Z,0
2017-01-30T05:04:54.668Z,0
2017-01-30T05:05:35.181Z,0
2017-01-30T05:06:15.703Z,0
2017-01-30T05:06:56.205Z,0
2017-01-30T05:07:36.720Z,0
2017-01-30T05:08:17.260Z,0
2017-01-30T05:08:57.791Z,0
2017-01-30T05:09:38.320Z,0
2017-01-30T05:10:18.849Z,0
2017-01-30T05:10:59.368Z,0
2017-01-30T05:11:39.895Z,0
2017-01-30T05:12:20.427Z,0
2017-01-30T05:13:00.954Z,0
2017-01-30T05:13:41.478Z,0
2017-01-30T05:14:21.996Z,0
2017-01-30T05:15:02.529Z,0
2017-01-30T05:15:43.067Z,0
2017-01-30T05:16:23.594Z,0
2017-01-30T05:17:04.384Z,0
2017-01-30T05:17:45.017Z,0
2017-01-30T05:18:25.613Z,0
2017-01-30T05:19:06.184Z,0
2017-01-30T05:19:47.516Z,0
2017-01-30T05:20:28.063Z,0
2017-01-30T05:21:08.643Z,0
2017-01-30T05:21:49.181Z,0
2017-01-30T05:22:29.702Z,0
2017-01-30T05:23:10.249Z,0
2017-01-30T05:23:50.746Z,0
2017-01-30T05:24:31.287Z,0
2017-01-30T05:25:11.826Z,0
2017-01-30T05:25:52.382Z,0
2017-01-30T05:26:32.899Z,0
2017-01-30T05:27:13.402Z,0
2017-01-30T05:27:53.987Z,0
2017-01-30T05:28:34.512Z,0
2017-01-30T05:29:15.032Z,0
2017-01-30T05:29:55.555Z,0
2017-01-30T05:30:36.079Z,0
2017-01-30T05:31:16.592Z,0
2017-01-30T05:31:57.120Z,0
2017-01-30T05:32:37.684Z,0
2017-01-30T05:33:18.181Z,0
2017-01-30T05:33:58.728Z,0
2017-01-30T05:34:39.243Z,0
2017-01-30T05:35:19.780Z,0
2017-01-30T05:36:00.314Z,0
2017-01-30T05:36:40.834Z,0
2017-01-30T05:37:21.365Z,0
2017-01-30T05:38:01.908Z,0
2017-01-30T05:38:42.420Z,0
2017-01-30T05:39:22.951Z,0
2017-01-30T05:40:04.224Z,0
2017-01-30T05:42:23.536Z,0
2017-01-30T05:43:04.069Z,0
2017-01-30T05:43:44.602Z,0
2017-01-30T05:44:25.120Z,0
2017-01-30T05:45:05.658Z,0
2017-01-30T05:45:46.142Z,0
2017-01-30T05:46:26.683Z,0
2017-01-30T05:47:07.789Z,0
2017-01-30T05:47:48.307Z,0
2017-01-30T05:48:28.829Z,0
2017-01-30T05:49:09.345Z,0
2017-01-30T05:49:49.867Z,0
2017-01-30T05:50:30.381Z,0
2017-01-30T05:51:10.902Z,0
2017-01-30T05:51:51.437Z,0
2017-01-30T05:52:31.965Z,0
2017-01-30T05:53:12.513Z,0
2017-01-30T05:53:53.056Z,0
2017-01-30T05:54:33.564Z,0
2017-01-30T05:55:14.103Z,0
2017-01-30T05:55:54.639Z,0
2017-01-30T05:56:35.141Z,0
2017-01-30T05:57:15.675Z,0
2017-01-30T05:57:56.195Z,0
2017-01-30T05:58:36.722Z,0
2017-01-30T05:59:17.228Z,0
2017-01-30T05:59:57.743Z,0
2017-01-30T06:00:38.278Z,0
2017-01-30T06:01:18.810Z,0
2017-01-30T06:01:59.315Z,0
2017-01-30T06:02:39.847Z,0
2017-01-30T06:03:20.374Z,0
2017-01-30T06:04:00.908Z,0
2017-01-30T06:04:41.435Z,0
2017-01-30T06:05:21.958Z,0
2017-01-30T06:06:02.495Z,0
2017-01-30T06:06:43.018Z,0
2017-01-30T06:07:23.527Z,0
2017-01-30T06:08:04.059Z,0
2017-01-30T06:08:44.629Z,0
2017-01-30T06:09:25.114Z,0
2017-01-30T06:10:05.633Z,0
2017-01-30T06:10:46.153Z,0
2017-01-30T06:11:26.684Z,0
2017-01-30T06:12:07.215Z,0
2017-01-30T06:12:47.740Z,0
2017-01-30T06:13:28.265Z,0
2017-01-30T06:14:08.789Z,0
2017-01-30T06:14:49.299Z,0
2017-01-30T06:15:29.844Z,0
2017-01-30T06:16:10.352Z,0
2017-01-30T06:16:50.895Z,0
2017-01-30T06:17:31.928Z,0
2017-01-30T06:18:12.483Z,0
2017-01-30T06:18:52.997Z,0
2017-01-30T06:19:33.566Z,0
2017-01-30T06:20:14.056Z,0
2017-01-30T06:20:54.577Z,0
2017-01-30T06:21:35.083Z,0
2017-01-30T06:22:15.616Z,0
2017-01-30T06:22:56.168Z,0
2017-01-30T06:23:36.662Z,0
2017-01-30T06:24:17.181Z,0
2017-01-30T06:24:57.736Z,0
2017-01-30T06:25:38.243Z,0
2017-01-30T06:26:18.778Z,0
2017-01-30T06:26:59.296Z,0
2017-01-30T06:27:39.830Z,0
2017-01-30T06:28:20.343Z,0
2017-01-30T06:29:00.874Z,0
2017-01-30T06:29:41.423Z,0
2017-01-30T06:30:21.949Z,0
2017-01-30T06:31:02.477Z,0
2017-01-30T06:31:43.045Z,0
2017-01-30T06:32:23.581Z,0
2017-01-30T06:33:04.090Z,0
2017-01-30T06:33:44.593Z,0
2017-01-30T06:34:25.135Z,0
2017-01-30T06:35:05.668Z,0
2017-01-30T06:35:46.190Z,0
2017-01-30T06:36:26.712Z,0
2017-01-30T06:37:07.236Z,0
2017-01-30T06:37:47.771Z,0
2017-01-30T06:38:28.286Z,0
2017-01-30T06:39:08.799Z,0
2017-01-30T06:39:49.322Z,0
2017-01-30T06:40:29.846Z,0
2017-01-30T06:41:10.382Z,0
2017-01-30T06:41:50.894Z,0
2017-01-30T06:42:31.421Z,0
2017-01-30T06:43:11.956Z,0
2017-01-30T06:43:52.461Z,0
2017-01-30T06:44:32.967Z,0
2017-01-30T06:45:13.496Z,0
2017-01-30T06:45:54.042Z,0
2017-01-30T06:46:34.575Z,0
2017-01-30T06:47:15.080Z,0
2017-01-30T06:47:55.596Z,0
2017-01-30T06:48:36.120Z,0
2017-01-30T06:49:16.667Z,4
2017-01-30T06:49:57.176Z,4
2017-01-30T06:50:37.711Z,0
2017-01-30T06:51:18.249Z,0
2017-01-30T06:51:58.772Z,0
2017-01-30T06:52:39.280Z,4
2017-01-30T06:53:19.800Z,4
2017-01-30T06:54:00.324Z,8
2017-01-30T06:54:40.842Z,4
2017-01-30T06:55:21.376Z,4
2017-01-30T06:56:01.902Z,4
2017-01-30T06:56:42.424Z,8
2017-01-30T06:57:22.951Z,12
2017-01-30T06:58:03.484Z,8
2017-01-30T06:58:44.010Z,12
2017-01-30T06:59:24.536Z,12
2017-01-30T07:00:05.074Z,12
2017-01-30T07:00:45.595Z,16
2017-01-30T07:01:26.126Z,16
2017-01-30T07:02:06.646Z,16
2017-01-30T07:02:47.153Z,20
2017-01-30T07:03:27.683Z,20
2017-01-30T07:04:08.217Z,20
2017-01-30T07:04:48.747Z,24
2017-01-30T07:05:29.256Z,24
2017-01-30T07:06:09.771Z,24
2017-01-30T07:06:50.291Z,28
2017-01-30T07:07:30.813Z,24
2017-01-30T07:08:11.337Z,20
2017-01-30T07:08:51.873Z,20
2017-01-30T07:09:32.411Z,20
2017-01-30T07:10:12.928Z,20
2017-01-30T07:10:53.449Z,24
2017-01-30T07:11:33.970Z,28
2017-01-30T07:12:14.494Z,24
2017-01-30T07:12:55.029Z,24
2017-01-30T07:13:35.549Z,24
2017-01-30T07:14:16.082Z,28
2017-01-30T07:14:56.588Z,24
2017-01-30T07:15:37.099Z,24
2017-01-30T07:16:17.624Z,24
2017-01-30T07:16:58.153Z,24
2017-01-30T07:17:38.678Z,24
2017-01-30T07:18:19.198Z,24
2017-01-30T07:18:59.738Z,28
2017-01-30T07:19:40.253Z,36
2017-01-30T07:20:20.769Z,40
2017-01-30T07:21:01.294Z,36
2017-01-30T07:21:41.808Z,36
2017-01-30T07:22:22.316Z,44
2017-01-30T07:23:02.846Z,52
2017-01-30T07:23:43.380Z,48
2017-01-30T07:24:23.885Z,56
2017-01-30T07:25:04.416Z,64
2017-01-30T07:25:44.944Z,68
2017-01-30T07:26:25.467Z,60
2017-01-30T07:27:05.983Z,64
2017-01-30T07:27:46.511Z,80
2017-01-30T07:28:27.036Z,64
2017-01-30T07:29:07.550Z,60
2017-01-30T07:29:48.045Z,100
2017-01-30T07:30:28.577Z,120
2017-01-30T07:31:09.113Z,124
2017-01-30T07:31:49.632Z,112
2017-01-30T07:32:30.158Z,108
2017-01-30T07:33:10.699Z,120
2017-01-30T07:33:51.234Z,120
2017-01-30T07:34:31.751Z,124
2017-01-30T07:35:12.272Z,120
2017-01-30T07:35:52.792Z,132
2017-01-30T07:36:33.311Z,124
2017-01-30T07:37:13.827Z,132
2017-01-30T07:37:54.354Z,148
2017-01-30T07:38:34.878Z,172
2017-01-30T07:39:15.436Z,152
2017-01-30T07:39:55.994Z,156
2017-01-30T07:40:36.528Z,168
2017-01-30T07:41:17.056Z,164
2017-01-30T07:41:57.574Z,172
2017-01-30T07:42:38.096Z,120
2017-01-30T07:43:18.601Z,120
2017-01-30T07:43:59.142Z,152
2017-01-30T07:44:39.674Z,168
2017-01-30T07:45:20.197Z,168
2017-01-30T07:46:00.764Z,168
2017-01-30T07:46:41.298Z,168
2017-01-30T07:47:21.833Z,184
2017-01-30T07:48:02.355Z,188
2017-01-30T07:48:42.877Z,196
2017-01-30T07:49:23.388Z,200
2017-01-30T07:50:04.043Z,212
2017-01-30T07:50:44.583Z,212
2017-01-30T07:51:25.119Z,212
2017-01-30T07:52:05.654Z,220
2017-01-30T07:52:46.171Z,232
2017-01-30T07:53:26.695Z,252
2017-01-30T07:54:07.230Z,276
2017-01-30T07:54:47.736Z,312
2017-01-30T07:55:28.257Z,372
2017-01-30T07:56:08.785Z,392
2017-01-30T07:56:49.340Z,604
2017-01-30T07:57:29.862Z,616
2017-01-30T07:58:10.373Z,496
2017-01-30T07:58:50.883Z,604
2017-01-30T07:59:31.410Z,548
2017-01-30T08:00:11.925Z,548
2017-01-30T08:00:52.451Z,632
2017-01-30T08:01:32.981Z,656
2017-01-30T08:02:13.778Z,548
2017-01-30T08:02:56.177Z,488
2017-01-30T08:03:36.736Z,564
2017-01-30T08:04:17.602Z,564
2017-01-30T08:04:58.119Z,468
2017-01-30T08:05:38.620Z,516
2017-01-30T08:06:19.118Z,576
2017-01-30T08:06:59.652Z,720
2017-01-30T08:07:40.181Z,616
2017-01-30T08:08:20.695Z,492
2017-01-30T08:09:01.213Z,432
2017-01-30T08:09:41.768Z,412
2017-01-30T08:10:22.268Z,412
2017-01-30T08:11:02.778Z,484
2017-01-30T08:11:43.292Z,504
2017-01-30T08:12:23.811Z,464
2017-01-30T08:13:04.407Z,448
2017-01-30T08:13:44.956Z,488
2017-01-30T08:14:29.507Z,488
2017-01-30T08:15:10.022Z,500
2017-01-30T08:15:50.532Z,512
2017-01-30T08:16:31.066Z,564
2017-01-30T08:17:11.607Z,584
2017-01-30T08:17:52.137Z,600
2017-01-30T08:18:32.651Z,632
2017-01-30T08:19:13.179Z,576
2017-01-30T08:19:53.719Z,604
2017-01-30T08:20:34.242Z,696
2017-01-30T08:21:14.769Z,748
2017-01-30T08:21:55.298Z,764
2017-01-30T08:22:35.833Z,776
2017-01-30T08:23:16.374Z,728
2017-01-30T08:23:56.901Z,832
2017-01-30T08:24:37.420Z,880
2017-01-30T08:25:17.945Z,908
2017-01-30T08:25:58.477Z,788
2017-01-30T08:26:39.020Z,1000
2017-01-30T08:27:19.540Z,1088
2017-01-30T08:28:00.060Z,952
2017-01-30T08:28:40.596Z,1028
2017-01-30T08:29:21.131Z,1012
2017-01-30T08:30:01.674Z,1064
2017-01-30T08:30:42.211Z,960
2017-01-30T08:31:22.706Z,924
2017-01-30T08:32:03.250Z,812
2017-01-30T08:32:43.776Z,716
2017-01-30T08:33:24.320Z,680
2017-01-30T08:34:04.847Z,712
2017-01-30T08:34:45.378Z,756
2017-01-30T08:35:25.882Z,736
2017-01-30T08:36:06.395Z,648
2017-01-30T08:36:46.923Z,600
2017-01-30T08:37:27.444Z,544
2017-01-30T08:38:07.974Z,520
2017-01-30T08:38:48.493Z,652
2017-01-30T08:39:29.032Z,568
2017-01-30T08:40:09.551Z,524
2017-01-30T08:40:50.081Z,608
2017-01-30T08:41:30.597Z,604
2017-01-30T08:42:11.127Z,584
2017-01-30T08:42:51.645Z,552
2017-01-30T08:43:32.177Z,552
2017-01-30T08:44:12.700Z,612
2017-01-30T08:44:53.231Z,592
2017-01-30T08:45:33.739Z,668
2017-01-30T08:46:14.280Z,584
2017-01-30T08:46:54.802Z,592
2017-01-30T08:47:35.321Z,620
2017-01-30T08:48:15.853Z,596
2017-01-30T08:48:56.381Z,604
2017-01-30T08:49:36.921Z,636
2017-01-30T08:50:17.461Z,632
2017-01-30T08:50:57.978Z,648
2017-01-30T08:51:38.504Z,720
2017-01-30T08:52:19.037Z,824
2017-01-30T08:52:59.554Z,768
2017-01-30T08:53:40.093Z,668
2017-01-30T08:54:20.605Z,680
2017-01-30T08:55:01.139Z,572
2017-01-30T08:55:41.680Z,496
2017-01-30T08:56:22.207Z,472
2017-01-30T08:57:02.759Z,452
2017-01-30T08:57:43.290Z,408
2017-01-30T08:58:23.797Z,400
2017-01-30T08:59:04.309Z,420
2017-01-30T08:59:44.809Z,396
2017-01-30T09:00:25.338Z,400
2017-01-30T09:01:05.869Z,432
2017-01-30T09:01:46.389Z,468
2017-01-30T09:02:26.937Z,436
2017-01-30T09:03:07.443Z,492
2017-01-30T09:03:47.962Z,524
2017-01-30T09:04:28.471Z,540
2017-01-30T09:05:08.998Z,516
2017-01-30T09:05:49.531Z,540
2017-01-30T09:06:30.060Z,556
2017-01-30T09:07:10.584Z,592
2017-01-30T09:07:51.104Z,636
2017-01-30T09:08:31.638Z,660
2017-01-30T09:09:12.151Z,660
2017-01-30T09:09:52.670Z,692
2017-01-30T09:10:33.200Z,636
2017-01-30T09:11:13.725Z,624
2017-01-30T09:11:54.249Z,616
2017-01-30T09:12:34.791Z,548
2017-01-30T09:13:15.320Z,516
2017-01-30T09:13:55.848Z,476
2017-01-30T09:14:36.386Z,468
2017-01-30T09:15:16.919Z,448
2017-01-30T09:15:57.441Z,404
2017-01-30T09:16:37.969Z,388
2017-01-30T09:17:18.497Z,360
2017-01-30T09:17:59.033Z,380
2017-01-30T09:18:39.558Z,412
2017-01-30T09:19:20.091Z,500
2017-01-30T09:20:00.625Z,500
2017-01-30T09:20:41.149Z,544
2017-01-30T09:21:21.685Z,620
2017-01-30T09:22:02.208Z,696
2017-01-30T09:22:42.743Z,704
2017-01-30T09:23:23.258Z,644
2017-01-30T09:24:03.782Z,612
2017-01-30T09:24:44.311Z,572
2017-01-30T09:25:24.829Z,600
2017-01-30T09:26:05.361Z,596
2017-01-30T09:26:45.907Z,600
2017-01-30T09:27:26.450Z,788
2017-01-30T09:28:06.975Z,896
2017-01-30T09:28:47.498Z,1020
2017-01-30T09:29:28.045Z,1160
2017-01-30T09:30:08.579Z,1364
2017-01-30T09:30:49.112Z,1416
2017-01-30T09:31:29.653Z,1304
2017-01-30T09:32:10.194Z,1184
2017-01-30T09:32:50.738Z,996
2017-01-30T09:33:31.268Z,868
2017-01-30T09:34:11.784Z,784
2017-01-30T09:34:52.303Z,856
2017-01-30T09:35:32.829Z,812
2017-01-30T09:36:13.360Z,868
2017-01-30T09:36:53.887Z,892
2017-01-30T09:37:34.422Z,860
2017-01-30T09:38:14.947Z,772
2017-01-30T09:38:55.469Z,876
2017-01-30T09:39:35.999Z,688
2017-01-30T09:40:16.523Z,680
2017-01-30T09:40:57.036Z,704
2017-01-30T09:41:37.584Z,720
2017-01-30T09:42:18.100Z,792
2017-01-30T09:42:58.613Z,772
2017-01-30T09:43:39.158Z,756
2017-01-30T09:44:19.682Z,744
2017-01-30T09:45:00.211Z,808
2017-01-30T09:45:40.750Z,820
2017-01-30T09:46:21.283Z,800
2017-01-30T09:47:01.813Z,820
2017-01-30T09:47:42.350Z,796
2017-01-30T09:48:22.898Z,704
2017-01-30T09:49:03.437Z,732
2017-01-30T09:49:43.958Z,824
2017-01-30T09:50:24.469Z,816
2017-01-30T09:51:05.008Z,844
2017-01-30T09:51:45.522Z,904
2017-01-30T09:52:26.042Z,1012
2017-01-30T09:53:06.557Z,1028
2017-01-30T09:53:47.100Z,1044
2017-01-30T09:54:27.641Z,1112
2017-01-30T09:55:08.170Z,1212
2017-01-30T09:55:48.715Z,1224
2017-01-30T09:56:29.247Z,1084
2017-01-30T09:57:09.771Z,1160
2017-01-30T09:57:50.323Z,1112
2017-01-30T09:58:30.870Z,996
2017-01-30T09:59:11.404Z,1000
2017-01-30T09:59:51.920Z,1000
2017-01-30T10:00:32.461Z,980
2017-01-30T10:01:12.979Z,968
2017-01-30T10:01:53.507Z,848
2017-01-30T10:02:34.034Z,852
2017-01-30T10:03:14.568Z,728
2017-01-30T10:03:55.090Z,624
2017-01-30T10:04:35.628Z,548
2017-01-30T10:05:16.168Z,560
2017-01-30T10:05:56.709Z,528
2017-01-30T10:06:37.237Z,612
2017-01-30T10:07:17.792Z,700
2017-01-30T10:07:58.279Z,728
2017-01-30T10:08:38.807Z,788
2017-01-30T10:09:19.335Z,876
2017-01-30T10:09:59.856Z,892
2017-01-30T10:10:40.376Z,804
2017-01-30T10:11:20.911Z,880
2017-01-30T10:12:01.438Z,784
2017-01-30T10:12:41.954Z,804
2017-01-30T10:13:22.488Z,788
2017-01-30T10:14:03.024Z,768
2017-01-30T10:14:43.560Z,740
2017-01-30T10:15:24.083Z,732
2017-01-30T10:16:04.623Z,744
2017-01-30T10:16:45.154Z,720
2017-01-30T10:17:25.689Z,692
2017-01-30T10:18:06.226Z,764
2017-01-30T10:18:46.752Z,904
2017-01-30T10:19:27.257Z,992
2017-01-30T10:20:07.790Z,1084
2017-01-30T10:20:48.337Z,1108
2017-01-30T10:21:28.879Z,1116
2017-01-30T10:22:09.440Z,1104
2017-01-30T10:22:49.947Z,1048
2017-01-30T10:23:30.466Z,1048
2017-01-30T10:24:10.987Z,1068
2017-01-30T10:24:51.523Z,900
2017-01-30T10:25:32.055Z,876
2017-01-30T10:26:12.574Z,928
2017-01-30T10:26:53.094Z,1044